sensor_id;sensor_type;location;lat;lon;timestamp;P1;durP1;ratioP1;P2;durP2;ratioP2
11197;SDS011;5655;48.744;9.162;2023-03-14T00:02:20;1.00;;;0.50;;
11197;SDS011;5655;48.744;9.162;2023-03-14T00:04:46;2.45;;;0.50;;
11197;SDS011;5655;48.744;9.162;2023-03-14T00:07:11;1.27;;;0.60;;
11197;SDS011;5655;48.744;9.162;2023-03-14T00:09:37;0.50;;;0.40;;
11197;SDS011;5655;48.744;9.162;2023-03-14T00:12:03;0.98;;;0.75;;
11197;SDS011;5655;48.744;9.162;2023-03-14T00:14:29;0.77;;;0.77;;
11197;SDS011;5655;48.744;9.162;2023-03-14T00:16:55;0.80;;;0.60;;
11197;SDS011;5655;48.744;9.162;2023-03-14T00:19:21;2.15;;;0.60;;
11197;SDS011;5655;48.744;9.162;2023-03-14T00:21:46;1.13;;;0.70;;
11197;SDS011;5655;48.744;9.162;2023-03-14T00:24:12;1.10;;;0.85;;
11197;SDS011;5655;48.744;9.162;2023-03-14T00:26:37;0.80;;;0.65;;
11197;SDS011;5655;48.744;9.162;2023-03-14T00:29:02;1.85;;;0.57;;
11197;SDS011;5655;48.744;9.162;2023-03-14T00:31:28;1.88;;;0.63;;
11197;SDS011;5655;48.744;9.162;2023-03-14T00:33:53;3.20;;;1.02;;
11197;SDS011;5655;48.744;9.162;2023-03-14T00:36:19;0.70;;;0.70;;
11197;SDS011;5655;48.744;9.162;2023-03-14T00:38:46;1.40;;;0.85;;
11197;SDS011;5655;48.744;9.162;2023-03-14T00:41:14;0.95;;;0.70;;
11197;SDS011;5655;48.744;9.162;2023-03-14T00:43:42;1.65;;;0.98;;
11197;SDS011;5655;48.744;9.162;2023-03-14T00:46:08;1.10;;;0.60;;
11197;SDS011;5655;48.744;9.162;2023-03-14T00:48:33;1.08;;;0.68;;
11197;SDS011;5655;48.744;9.162;2023-03-14T00:50:59;1.88;;;0.60;;
11197;SDS011;5655;48.744;9.162;2023-03-14T00:53:25;0.70;;;0.70;;
11197;SDS011;5655;48.744;9.162;2023-03-14T00:55:51;0.90;;;0.68;;
11197;SDS011;5655;48.744;9.162;2023-03-14T00:58:16;2.30;;;0.60;;
11197;SDS011;5655;48.744;9.162;2023-03-14T01:00:43;0.75;;;0.70;;
11197;SDS011;5655;48.744;9.162;2023-03-14T01:03:09;0.90;;;0.70;;
11197;SDS011;5655;48.744;9.162;2023-03-14T01:05:36;1.45;;;0.75;;
11197;SDS011;5655;48.744;9.162;2023-03-14T01:08:02;0.85;;;0.63;;
11197;SDS011;5655;48.744;9.162;2023-03-14T01:10:28;1.02;;;0.63;;
11197;SDS011;5655;48.744;9.162;2023-03-14T01:12:54;0.68;;;0.50;;
11197;SDS011;5655;48.744;9.162;2023-03-14T01:15:19;4.25;;;0.50;;
11197;SDS011;5655;48.744;9.162;2023-03-14T01:17:45;0.82;;;0.60;;
11197;SDS011;5655;48.744;9.162;2023-03-14T01:20:11;0.60;;;0.57;;
11197;SDS011;5655;48.744;9.162;2023-03-14T01:22:39;0.70;;;0.50;;
11197;SDS011;5655;48.744;9.162;2023-03-14T01:25:08;0.40;;;0.40;;
11197;SDS011;5655;48.744;9.162;2023-03-14T01:27:35;0.70;;;0.50;;
11197;SDS011;5655;48.744;9.162;2023-03-14T01:30:00;0.68;;;0.50;;
11197;SDS011;5655;48.744;9.162;2023-03-14T01:32:25;1.05;;;0.50;;
11197;SDS011;5655;48.744;9.162;2023-03-14T01:34:51;0.43;;;0.30;;
11197;SDS011;5655;48.744;9.162;2023-03-14T01:37:17;0.60;;;0.47;;
11197;SDS011;5655;48.744;9.162;2023-03-14T01:39:42;0.43;;;0.40;;
11197;SDS011;5655;48.744;9.162;2023-03-14T01:42:08;1.08;;;0.52;;
11197;SDS011;5655;48.744;9.162;2023-03-14T01:47:16;0.57;;;0.57;;
11197;SDS011;5655;48.744;9.162;2023-03-14T01:49:42;1.30;;;0.63;;
11197;SDS011;5655;48.744;9.162;2023-03-14T01:52:15;0.40;;;0.40;;
11197;SDS011;5655;48.744;9.162;2023-03-14T01:54:47;0.30;;;0.30;;
11197;SDS011;5655;48.744;9.162;2023-03-14T02:00:04;1.17;;;0.60;;
11197;SDS011;5655;48.744;9.162;2023-03-14T02:02:37;1.80;;;0.50;;
11197;SDS011;5655;48.744;9.162;2023-03-14T02:05:10;2.08;;;0.50;;
11197;SDS011;5655;48.744;9.162;2023-03-14T02:07:39;0.43;;;0.43;;
11197;SDS011;5655;48.744;9.162;2023-03-14T02:10:11;1.00;;;0.50;;
11197;SDS011;5655;48.744;9.162;2023-03-14T02:12:37;0.52;;;0.40;;
11197;SDS011;5655;48.744;9.162;2023-03-14T02:15:03;0.57;;;0.40;;
11197;SDS011;5655;48.744;9.162;2023-03-14T02:17:29;0.52;;;0.40;;
11197;SDS011;5655;48.744;9.162;2023-03-14T02:22:50;2.40;;;0.40;;
11197;SDS011;5655;48.744;9.162;2023-03-14T02:25:20;3.20;;;0.32;;
11197;SDS011;5655;48.744;9.162;2023-03-14T02:28:05;1.80;;;0.45;;
11197;SDS011;5655;48.744;9.162;2023-03-14T02:30:31;2.10;;;0.35;;
11197;SDS011;5655;48.744;9.162;2023-03-14T02:33:01;0.50;;;0.40;;
11197;SDS011;5655;48.744;9.162;2023-03-14T02:35:39;1.45;;;0.40;;
11197;SDS011;5655;48.744;9.162;2023-03-14T02:41:00;0.47;;;0.40;;
11197;SDS011;5655;48.744;9.162;2023-03-14T02:43:26;0.80;;;0.38;;
11197;SDS011;5655;48.744;9.162;2023-03-14T02:45:52;0.60;;;0.45;;
11197;SDS011;5655;48.744;9.162;2023-03-14T02:50:50;0.50;;;0.50;;
11197;SDS011;5655;48.744;9.162;2023-03-14T02:53:18;1.38;;;0.38;;
11197;SDS011;5655;48.744;9.162;2023-03-14T02:55:47;1.27;;;0.47;;
11197;SDS011;5655;48.744;9.162;2023-03-14T02:58:13;0.30;;;0.30;;
11197;SDS011;5655;48.744;9.162;2023-03-14T03:00:39;0.88;;;0.40;;
11197;SDS011;5655;48.744;9.162;2023-03-14T03:03:05;0.65;;;0.47;;
11197;SDS011;5655;48.744;9.162;2023-03-14T03:05:31;0.30;;;0.30;;
11197;SDS011;5655;48.744;9.162;2023-03-14T03:07:56;0.63;;;0.50;;
11197;SDS011;5655;48.744;9.162;2023-03-14T03:10:22;1.75;;;0.55;;
11197;SDS011;5655;48.744;9.162;2023-03-14T03:12:47;0.32;;;0.30;;
11197;SDS011;5655;48.744;9.162;2023-03-14T03:15:12;0.85;;;0.50;;
11197;SDS011;5655;48.744;9.162;2023-03-14T03:17:38;1.27;;;0.40;;
11197;SDS011;5655;48.744;9.162;2023-03-14T03:20:03;1.05;;;0.55;;
11197;SDS011;5655;48.744;9.162;2023-03-14T03:22:30;1.42;;;0.60;;
11197;SDS011;5655;48.744;9.162;2023-03-14T03:24:55;1.88;;;0.60;;
11197;SDS011;5655;48.744;9.162;2023-03-14T03:27:20;2.45;;;0.47;;
11197;SDS011;5655;48.744;9.162;2023-03-14T03:29:45;1.30;;;0.68;;
11197;SDS011;5655;48.744;9.162;2023-03-14T03:32:12;4.53;;;0.70;;
11197;SDS011;5655;48.744;9.162;2023-03-14T03:34:38;0.90;;;0.47;;
11197;SDS011;5655;48.744;9.162;2023-03-14T03:37:03;3.17;;;0.50;;
11197;SDS011;5655;48.744;9.162;2023-03-14T03:39:28;3.03;;;0.77;;
11197;SDS011;5655;48.744;9.162;2023-03-14T03:41:53;1.15;;;0.50;;
11197;SDS011;5655;48.744;9.162;2023-03-14T03:44:19;1.88;;;0.63;;
11197;SDS011;5655;48.744;9.162;2023-03-14T03:46:44;3.75;;;0.70;;
11197;SDS011;5655;48.744;9.162;2023-03-14T03:49:10;1.35;;;0.68;;
11197;SDS011;5655;48.744;9.162;2023-03-14T03:51:35;3.25;;;0.70;;
11197;SDS011;5655;48.744;9.162;2023-03-14T03:54:00;2.80;;;0.88;;
11197;SDS011;5655;48.744;9.162;2023-03-14T03:56:25;1.48;;;0.80;;
11197;SDS011;5655;48.744;9.162;2023-03-14T03:58:51;1.48;;;0.70;;
11197;SDS011;5655;48.744;9.162;2023-03-14T04:01:16;2.22;;;0.88;;
11197;SDS011;5655;48.744;9.162;2023-03-14T04:03:41;2.00;;;0.85;;
11197;SDS011;5655;48.744;9.162;2023-03-14T04:06:11;3.47;;;1.00;;
11197;SDS011;5655;48.744;9.162;2023-03-14T04:08:37;3.53;;;1.15;;
11197;SDS011;5655;48.744;9.162;2023-03-14T04:11:04;3.85;;;0.80;;
11197;SDS011;5655;48.744;9.162;2023-03-14T04:13:29;3.40;;;0.90;;
11197;SDS011;5655;48.744;9.162;2023-03-14T04:15:55;2.90;;;0.73;;
11197;SDS011;5655;48.744;9.162;2023-03-14T04:18:21;3.15;;;0.80;;
11197;SDS011;5655;48.744;9.162;2023-03-14T04:20:53;2.92;;;0.73;;
11197;SDS011;5655;48.744;9.162;2023-03-14T04:23:19;2.78;;;0.77;;
11197;SDS011;5655;48.744;9.162;2023-03-14T04:25:45;2.45;;;0.95;;
11197;SDS011;5655;48.744;9.162;2023-03-14T04:28:10;4.10;;;0.90;;
11197;SDS011;5655;48.744;9.162;2023-03-14T04:30:36;2.25;;;0.70;;
11197;SDS011;5655;48.744;9.162;2023-03-14T04:33:01;2.45;;;0.60;;
11197;SDS011;5655;48.744;9.162;2023-03-14T04:35:26;3.63;;;0.80;;
11197;SDS011;5655;48.744;9.162;2023-03-14T04:37:52;5.05;;;1.00;;
11197;SDS011;5655;48.744;9.162;2023-03-14T04:40:17;7.90;;;1.90;;
11197;SDS011;5655;48.744;9.162;2023-03-14T04:42:43;1.13;;;0.80;;
11197;SDS011;5655;48.744;9.162;2023-03-14T04:45:08;3.20;;;1.00;;
11197;SDS011;5655;48.744;9.162;2023-03-14T04:47:34;5.28;;;0.90;;
11197;SDS011;5655;48.744;9.162;2023-03-14T04:49:59;5.43;;;0.70;;
11197;SDS011;5655;48.744;9.162;2023-03-14T04:52:26;3.25;;;1.08;;
11197;SDS011;5655;48.744;9.162;2023-03-14T04:54:52;3.70;;;1.10;;
11197;SDS011;5655;48.744;9.162;2023-03-14T04:57:17;2.13;;;0.90;;
11197;SDS011;5655;48.744;9.162;2023-03-14T04:59:43;3.65;;;0.63;;
11197;SDS011;5655;48.744;9.162;2023-03-14T05:02:08;3.20;;;0.70;;
11197;SDS011;5655;48.744;9.162;2023-03-14T05:04:33;2.47;;;1.20;;
11197;SDS011;5655;48.744;9.162;2023-03-14T05:06:59;3.60;;;0.90;;
11197;SDS011;5655;48.744;9.162;2023-03-14T05:09:25;2.70;;;0.82;;
11197;SDS011;5655;48.744;9.162;2023-03-14T05:11:50;0.70;;;0.40;;
11197;SDS011;5655;48.744;9.162;2023-03-14T05:14:15;2.03;;;0.60;;
11197;SDS011;5655;48.744;9.162;2023-03-14T05:16:41;1.00;;;0.63;;
11197;SDS011;5655;48.744;9.162;2023-03-14T05:19:06;2.97;;;0.90;;
11197;SDS011;5655;48.744;9.162;2023-03-14T05:21:31;2.10;;;0.60;;
11197;SDS011;5655;48.744;9.162;2023-03-14T05:23:57;3.05;;;0.85;;
11197;SDS011;5655;48.744;9.162;2023-03-14T05:26:22;2.58;;;0.80;;
11197;SDS011;5655;48.744;9.162;2023-03-14T05:28:48;3.47;;;0.85;;
11197;SDS011;5655;48.744;9.162;2023-03-14T05:31:13;5.70;;;0.82;;
11197;SDS011;5655;48.744;9.162;2023-03-14T05:33:39;2.00;;;0.70;;
11197;SDS011;5655;48.744;9.162;2023-03-14T05:36:05;4.05;;;1.13;;
11197;SDS011;5655;48.744;9.162;2023-03-14T05:38:30;3.83;;;1.00;;
11197;SDS011;5655;48.744;9.162;2023-03-14T05:40:56;1.95;;;0.80;;
11197;SDS011;5655;48.744;9.162;2023-03-14T05:43:21;4.57;;;1.02;;
11197;SDS011;5655;48.744;9.162;2023-03-14T05:45:47;2.22;;;0.80;;
11197;SDS011;5655;48.744;9.162;2023-03-14T05:48:12;3.45;;;0.93;;
11197;SDS011;5655;48.744;9.162;2023-03-14T05:50:37;1.73;;;0.80;;
11197;SDS011;5655;48.744;9.162;2023-03-14T05:53:03;4.13;;;0.82;;
11197;SDS011;5655;48.744;9.162;2023-03-14T05:55:28;1.10;;;0.60;;
11197;SDS011;5655;48.744;9.162;2023-03-14T05:57:54;2.38;;;0.80;;
11197;SDS011;5655;48.744;9.162;2023-03-14T06:00:19;1.77;;;0.82;;
11197;SDS011;5655;48.744;9.162;2023-03-14T06:02:45;2.80;;;0.90;;
11197;SDS011;5655;48.744;9.162;2023-03-14T06:05:11;3.72;;;1.20;;
11197;SDS011;5655;48.744;9.162;2023-03-14T06:07:36;5.15;;;1.38;;
11197;SDS011;5655;48.744;9.162;2023-03-14T06:10:02;3.30;;;1.05;;
11197;SDS011;5655;48.744;9.162;2023-03-14T06:12:27;2.83;;;0.80;;
11197;SDS011;5655;48.744;9.162;2023-03-14T06:14:53;3.53;;;1.58;;
11197;SDS011;5655;48.744;9.162;2023-03-14T06:17:18;3.38;;;0.82;;
11197;SDS011;5655;48.744;9.162;2023-03-14T06:19:44;4.20;;;0.70;;
11197;SDS011;5655;48.744;9.162;2023-03-14T06:22:09;4.00;;;0.65;;
11197;SDS011;5655;48.744;9.162;2023-03-14T06:24:34;4.30;;;0.82;;
11197;SDS011;5655;48.744;9.162;2023-03-14T06:27:00;3.83;;;0.80;;
11197;SDS011;5655;48.744;9.162;2023-03-14T06:29:27;4.15;;;1.08;;
11197;SDS011;5655;48.744;9.162;2023-03-14T06:31:52;2.15;;;0.52;;
11197;SDS011;5655;48.744;9.162;2023-03-14T06:34:18;1.70;;;0.85;;
11197;SDS011;5655;48.744;9.162;2023-03-14T06:36:43;3.78;;;0.93;;
11197;SDS011;5655;48.744;9.162;2023-03-14T06:39:08;2.38;;;0.60;;
11197;SDS011;5655;48.744;9.162;2023-03-14T06:41:34;1.60;;;0.60;;
11197;SDS011;5655;48.744;9.162;2023-03-14T06:43:59;1.08;;;0.70;;
11197;SDS011;5655;48.744;9.162;2023-03-14T06:46:24;2.00;;;0.75;;
11197;SDS011;5655;48.744;9.162;2023-03-14T06:48:49;1.80;;;0.60;;
11197;SDS011;5655;48.744;9.162;2023-03-14T06:51:15;3.60;;;0.90;;
11197;SDS011;5655;48.744;9.162;2023-03-14T06:53:40;1.92;;;0.70;;
11197;SDS011;5655;48.744;9.162;2023-03-14T06:56:06;6.38;;;1.10;;
11197;SDS011;5655;48.744;9.162;2023-03-14T06:58:32;2.58;;;0.65;;
11197;SDS011;5655;48.744;9.162;2023-03-14T07:00:57;2.22;;;0.70;;
11197;SDS011;5655;48.744;9.162;2023-03-14T07:03:23;1.90;;;0.60;;
11197;SDS011;5655;48.744;9.162;2023-03-14T07:05:49;1.88;;;0.60;;
11197;SDS011;5655;48.744;9.162;2023-03-14T07:08:15;4.60;;;0.88;;
11197;SDS011;5655;48.744;9.162;2023-03-14T07:10:40;1.85;;;0.60;;
11197;SDS011;5655;48.744;9.162;2023-03-14T07:13:05;2.17;;;0.60;;
11197;SDS011;5655;48.744;9.162;2023-03-14T07:15:31;2.55;;;0.38;;
11197;SDS011;5655;48.744;9.162;2023-03-14T07:17:56;1.48;;;0.60;;
11197;SDS011;5655;48.744;9.162;2023-03-14T07:20:22;1.98;;;0.60;;
11197;SDS011;5655;48.744;9.162;2023-03-14T07:22:48;0.55;;;0.35;;
11197;SDS011;5655;48.744;9.162;2023-03-14T07:25:14;0.68;;;0.43;;
11197;SDS011;5655;48.744;9.162;2023-03-14T07:27:40;2.28;;;0.47;;
11197;SDS011;5655;48.744;9.162;2023-03-14T07:30:08;2.50;;;0.65;;
11197;SDS011;5655;48.744;9.162;2023-03-14T07:32:34;0.45;;;0.30;;
11197;SDS011;5655;48.744;9.162;2023-03-14T07:34:59;4.03;;;0.70;;
11197;SDS011;5655;48.744;9.162;2023-03-14T07:37:24;1.15;;;0.32;;
11197;SDS011;5655;48.744;9.162;2023-03-14T07:39:50;3.08;;;0.40;;
11197;SDS011;5655;48.744;9.162;2023-03-14T07:42:15;3.80;;;0.55;;
11197;SDS011;5655;48.744;9.162;2023-03-14T07:44:40;2.63;;;0.43;;
11197;SDS011;5655;48.744;9.162;2023-03-14T07:47:06;1.80;;;0.45;;
11197;SDS011;5655;48.744;9.162;2023-03-14T07:49:31;0.70;;;0.40;;
11197;SDS011;5655;48.744;9.162;2023-03-14T07:51:56;1.90;;;0.40;;
11197;SDS011;5655;48.744;9.162;2023-03-14T07:54:21;0.35;;;0.30;;
11197;SDS011;5655;48.744;9.162;2023-03-14T07:56:48;2.70;;;0.68;;
11197;SDS011;5655;48.744;9.162;2023-03-14T07:59:13;1.75;;;0.50;;
11197;SDS011;5655;48.744;9.162;2023-03-14T08:01:39;2.23;;;0.50;;
11197;SDS011;5655;48.744;9.162;2023-03-14T08:04:04;1.85;;;0.60;;
11197;SDS011;5655;48.744;9.162;2023-03-14T08:06:29;0.75;;;0.57;;
11197;SDS011;5655;48.744;9.162;2023-03-14T08:08:55;1.58;;;0.55;;
11197;SDS011;5655;48.744;9.162;2023-03-14T08:11:20;1.98;;;0.40;;
11197;SDS011;5655;48.744;9.162;2023-03-14T08:13:45;3.05;;;0.43;;
11197;SDS011;5655;48.744;9.162;2023-03-14T08:16:15;0.95;;;0.40;;
11197;SDS011;5655;48.744;9.162;2023-03-14T08:18:41;0.93;;;0.40;;
11197;SDS011;5655;48.744;9.162;2023-03-14T08:21:06;0.98;;;0.30;;
11197;SDS011;5655;48.744;9.162;2023-03-14T08:23:32;1.70;;;0.50;;
11197;SDS011;5655;48.744;9.162;2023-03-14T08:25:57;0.63;;;0.63;;
11197;SDS011;5655;48.744;9.162;2023-03-14T08:28:22;0.60;;;0.30;;
11197;SDS011;5655;48.744;9.162;2023-03-14T08:30:48;0.77;;;0.30;;
11197;SDS011;5655;48.744;9.162;2023-03-14T08:33:13;2.08;;;0.52;;
11197;SDS011;5655;48.744;9.162;2023-03-14T08:35:38;0.60;;;0.40;;
11197;SDS011;5655;48.744;9.162;2023-03-14T08:38:04;1.27;;;0.30;;
11197;SDS011;5655;48.744;9.162;2023-03-14T08:40:29;2.45;;;0.47;;
11197;SDS011;5655;48.744;9.162;2023-03-14T08:42:55;0.98;;;0.40;;
11197;SDS011;5655;48.744;9.162;2023-03-14T08:45:20;1.95;;;0.30;;
11197;SDS011;5655;48.744;9.162;2023-03-14T08:47:46;1.80;;;0.50;;
11197;SDS011;5655;48.744;9.162;2023-03-14T08:50:12;2.33;;;0.47;;
11197;SDS011;5655;48.744;9.162;2023-03-14T08:52:38;1.90;;;0.60;;
11197;SDS011;5655;48.744;9.162;2023-03-14T08:55:06;2.10;;;0.20;;
11197;SDS011;5655;48.744;9.162;2023-03-14T08:57:33;2.50;;;0.40;;
11197;SDS011;5655;48.744;9.162;2023-03-14T08:59:58;0.85;;;0.47;;
11197;SDS011;5655;48.744;9.162;2023-03-14T09:02:23;2.95;;;0.57;;
11197;SDS011;5655;48.744;9.162;2023-03-14T09:04:50;1.27;;;0.57;;
11197;SDS011;5655;48.744;9.162;2023-03-14T09:07:17;0.80;;;0.22;;
11197;SDS011;5655;48.744;9.162;2023-03-14T09:09:43;2.25;;;0.40;;
11197;SDS011;5655;48.744;9.162;2023-03-14T09:12:08;0.40;;;0.32;;
11197;SDS011;5655;48.744;9.162;2023-03-14T09:14:34;1.48;;;0.50;;
11197;SDS011;5655;48.744;9.162;2023-03-14T09:16:59;1.98;;;0.50;;
11197;SDS011;5655;48.744;9.162;2023-03-14T09:19:24;0.95;;;0.28;;
11197;SDS011;5655;48.744;9.162;2023-03-14T09:21:50;0.68;;;0.32;;
11197;SDS011;5655;48.744;9.162;2023-03-14T09:24:15;1.02;;;0.38;;
11197;SDS011;5655;48.744;9.162;2023-03-14T09:26:42;2.28;;;0.30;;
11197;SDS011;5655;48.744;9.162;2023-03-14T09:29:07;0.75;;;0.60;;
11197;SDS011;5655;48.744;9.162;2023-03-14T09:31:33;2.63;;;0.43;;
11197;SDS011;5655;48.744;9.162;2023-03-14T09:33:58;1.95;;;0.47;;
11197;SDS011;5655;48.744;9.162;2023-03-14T09:36:23;1.52;;;0.30;;
11197;SDS011;5655;48.744;9.162;2023-03-14T09:38:49;1.98;;;0.50;;
11197;SDS011;5655;48.744;9.162;2023-03-14T09:41:18;1.20;;;0.45;;
11197;SDS011;5655;48.744;9.162;2023-03-14T09:43:50;2.00;;;0.40;;
11197;SDS011;5655;48.744;9.162;2023-03-14T09:46:25;1.23;;;0.38;;
11197;SDS011;5655;48.744;9.162;2023-03-14T09:48:51;0.52;;;0.20;;
11197;SDS011;5655;48.744;9.162;2023-03-14T09:51:17;0.35;;;0.30;;
11197;SDS011;5655;48.744;9.162;2023-03-14T09:53:46;0.60;;;0.40;;
11197;SDS011;5655;48.744;9.162;2023-03-14T09:56:19;1.77;;;0.20;;
11197;SDS011;5655;48.744;9.162;2023-03-14T09:58:52;0.57;;;0.20;;
11197;SDS011;5655;48.744;9.162;2023-03-14T10:01:22;0.93;;;0.17;;
11197;SDS011;5655;48.744;9.162;2023-03-14T10:03:52;0.10;;;0.10;;
11197;SDS011;5655;48.744;9.162;2023-03-14T10:06:20;0.30;;;0.20;;
11197;SDS011;5655;48.744;9.162;2023-03-14T10:08:48;0.25;;;0.25;;
11197;SDS011;5655;48.744;9.162;2023-03-14T10:11:17;0.20;;;0.20;;
11197;SDS011;5655;48.744;9.162;2023-03-14T10:16:30;0.30;;;0.30;;
11197;SDS011;5655;48.744;9.162;2023-03-14T10:19:06;1.02;;;0.17;;
11197;SDS011;5655;48.744;9.162;2023-03-14T10:21:36;0.82;;;0.32;;
11197;SDS011;5655;48.744;9.162;2023-03-14T10:26:53;1.27;;;0.30;;
11197;SDS011;5655;48.744;9.162;2023-03-14T10:29:19;0.50;;;0.50;;
11197;SDS011;5655;48.744;9.162;2023-03-14T10:31:53;1.67;;;0.32;;
11197;SDS011;5655;48.744;9.162;2023-03-14T10:34:35;0.90;;;0.50;;
11197;SDS011;5655;48.744;9.162;2023-03-14T10:37:05;0.73;;;0.30;;
11197;SDS011;5655;48.744;9.162;2023-03-14T10:39:46;0.13;;;0.13;;
11197;SDS011;5655;48.744;9.162;2023-03-14T10:44:44;1.20;;;0.45;;
11197;SDS011;5655;48.744;9.162;2023-03-14T10:47:20;0.20;;;0.20;;
11197;SDS011;5655;48.744;9.162;2023-03-14T10:49:48;2.08;;;0.30;;
11197;SDS011;5655;48.744;9.162;2023-03-14T10:54:59;0.60;;;0.30;;
11197;SDS011;5655;48.744;9.162;2023-03-14T10:57:27;0.20;;;0.20;;
11197;SDS011;5655;48.744;9.162;2023-03-14T10:59:53;0.52;;;0.40;;
11197;SDS011;5655;48.744;9.162;2023-03-14T11:05:24;0.63;;;0.20;;
11197;SDS011;5655;48.744;9.162;2023-03-14T11:07:52;0.45;;;0.20;;
11197;SDS011;5655;48.744;9.162;2023-03-14T11:10:35;0.40;;;0.20;;
11197;SDS011;5655;48.744;9.162;2023-03-14T11:13:23;0.85;;;0.38;;
11197;SDS011;5655;48.744;9.162;2023-03-14T11:16:06;0.20;;;0.20;;
11197;SDS011;5655;48.744;9.162;2023-03-14T11:21:32;1.90;;;0.10;;
11197;SDS011;5655;48.744;9.162;2023-03-14T11:26:52;0.55;;;0.20;;
11197;SDS011;5655;48.744;9.162;2023-03-14T11:29:39;0.20;;;0.20;;
11197;SDS011;5655;48.744;9.162;2023-03-14T11:32:36;1.88;;;0.22;;
11197;SDS011;5655;48.744;9.162;2023-03-14T11:40:38;0.73;;;0.30;;
11197;SDS011;5655;48.744;9.162;2023-03-14T11:45:37;1.15;;;0.30;;
11197;SDS011;5655;48.744;9.162;2023-03-14T11:48:13;1.35;;;0.30;;
11197;SDS011;5655;48.744;9.162;2023-03-14T11:50:59;0.32;;;0.28;;
11197;SDS011;5655;48.744;9.162;2023-03-14T11:56:18;0.25;;;0.25;;
11197;SDS011;5655;48.744;9.162;2023-03-14T11:58:53;0.68;;;0.20;;
11197;SDS011;5655;48.744;9.162;2023-03-14T12:01:22;0.30;;;0.30;;
11197;SDS011;5655;48.744;9.162;2023-03-14T12:04:00;0.40;;;0.20;;
11197;SDS011;5655;48.744;9.162;2023-03-14T12:06:49;0.25;;;0.20;;
11197;SDS011;5655;48.744;9.162;2023-03-14T12:09:16;0.45;;;0.15;;
11197;SDS011;5655;48.744;9.162;2023-03-14T12:14:26;0.38;;;0.35;;
11197;SDS011;5655;48.744;9.162;2023-03-14T12:16:56;1.10;;;0.20;;
11197;SDS011;5655;48.744;9.162;2023-03-14T12:24:37;0.28;;;0.20;;
11197;SDS011;5655;48.744;9.162;2023-03-14T12:27:10;0.28;;;0.28;;
11197;SDS011;5655;48.744;9.162;2023-03-14T12:29:59;0.90;;;0.35;;
11197;SDS011;5655;48.744;9.162;2023-03-14T12:32:25;0.65;;;0.20;;
11197;SDS011;5655;48.744;9.162;2023-03-14T12:34:51;0.22;;;0.22;;
11197;SDS011;5655;48.744;9.162;2023-03-14T12:37:17;0.57;;;0.32;;
11197;SDS011;5655;48.744;9.162;2023-03-14T12:42:36;0.30;;;0.30;;
11197;SDS011;5655;48.744;9.162;2023-03-14T12:47:54;0.40;;;0.40;;
11197;SDS011;5655;48.744;9.162;2023-03-14T12:50:42;1.15;;;0.40;;
11197;SDS011;5655;48.744;9.162;2023-03-14T12:56:05;0.60;;;0.32;;
11197;SDS011;5655;48.744;9.162;2023-03-14T13:01:55;2.25;;;0.45;;
11197;SDS011;5655;48.744;9.162;2023-03-14T13:04:34;0.80;;;0.40;;
11197;SDS011;5655;48.744;9.162;2023-03-14T13:07:10;2.42;;;0.43;;
11197;SDS011;5655;48.744;9.162;2023-03-14T13:10:05;0.98;;;0.50;;
11197;SDS011;5655;48.744;9.162;2023-03-14T13:15:43;2.35;;;0.70;;
11197;SDS011;5655;48.744;9.162;2023-03-14T13:18:12;1.20;;;0.40;;
11197;SDS011;5655;48.744;9.162;2023-03-14T13:20:52;2.13;;;0.63;;
11197;SDS011;5655;48.744;9.162;2023-03-14T13:23:30;2.15;;;0.55;;
11197;SDS011;5655;48.744;9.162;2023-03-14T13:25:58;1.05;;;0.55;;
11197;SDS011;5655;48.744;9.162;2023-03-14T13:28:25;2.22;;;0.90;;
11197;SDS011;5655;48.744;9.162;2023-03-14T13:30:56;2.10;;;0.60;;
11197;SDS011;5655;48.744;9.162;2023-03-14T13:33:24;2.27;;;0.60;;
11197;SDS011;5655;48.744;9.162;2023-03-14T13:38:25;3.67;;;0.80;;
11197;SDS011;5655;48.744;9.162;2023-03-14T13:40:53;1.63;;;0.55;;
11197;SDS011;5655;48.744;9.162;2023-03-14T13:43:25;1.92;;;0.70;;
11197;SDS011;5655;48.744;9.162;2023-03-14T13:45:56;1.67;;;0.65;;
11197;SDS011;5655;48.744;9.162;2023-03-14T13:48:28;2.40;;;0.70;;
11197;SDS011;5655;48.744;9.162;2023-03-14T13:50:56;1.00;;;0.50;;
11197;SDS011;5655;48.744;9.162;2023-03-14T13:53:26;2.42;;;0.90;;
11197;SDS011;5655;48.744;9.162;2023-03-14T13:55:51;2.33;;;0.60;;
11197;SDS011;5655;48.744;9.162;2023-03-14T14:01:00;2.27;;;0.80;;
11197;SDS011;5655;48.744;9.162;2023-03-14T14:03:30;2.67;;;0.50;;
11197;SDS011;5655;48.744;9.162;2023-03-14T14:05:57;3.08;;;0.80;;
11197;SDS011;5655;48.744;9.162;2023-03-14T14:08:23;1.55;;;0.60;;
11197;SDS011;5655;48.744;9.162;2023-03-14T14:10:50;2.10;;;0.70;;
11197;SDS011;5655;48.744;9.162;2023-03-14T14:13:22;2.55;;;0.70;;
11197;SDS011;5655;48.744;9.162;2023-03-14T14:15:50;2.10;;;0.70;;
11197;SDS011;5655;48.744;9.162;2023-03-14T14:18:18;1.63;;;0.40;;
11197;SDS011;5655;48.744;9.162;2023-03-14T14:20:47;2.47;;;0.57;;
11197;SDS011;5655;48.744;9.162;2023-03-14T14:23:20;1.37;;;0.50;;
11197;SDS011;5655;48.744;9.162;2023-03-14T14:25:54;2.08;;;0.60;;
11197;SDS011;5655;48.744;9.162;2023-03-14T14:28:27;1.00;;;0.55;;
11197;SDS011;5655;48.744;9.162;2023-03-14T14:31:04;2.03;;;0.60;;
11197;SDS011;5655;48.744;9.162;2023-03-14T14:36:22;1.27;;;0.50;;
11197;SDS011;5655;48.744;9.162;2023-03-14T14:38:57;2.45;;;0.80;;
11197;SDS011;5655;48.744;9.162;2023-03-14T14:41:26;2.90;;;0.70;;
11197;SDS011;5655;48.744;9.162;2023-03-14T14:43:54;4.03;;;0.83;;
11197;SDS011;5655;48.744;9.162;2023-03-14T14:46:20;1.27;;;0.63;;
11197;SDS011;5655;48.744;9.162;2023-03-14T14:48:46;2.17;;;1.02;;
11197;SDS011;5655;48.744;9.162;2023-03-14T14:51:22;0.93;;;0.50;;
11197;SDS011;5655;48.744;9.162;2023-03-14T14:53:50;1.65;;;0.60;;
11197;SDS011;5655;48.744;9.162;2023-03-14T14:56:51;2.17;;;0.70;;
11197;SDS011;5655;48.744;9.162;2023-03-14T14:59:27;1.95;;;0.80;;
11197;SDS011;5655;48.744;9.162;2023-03-14T15:02:00;3.65;;;1.00;;
11197;SDS011;5655;48.744;9.162;2023-03-14T15:04:27;6.20;;;0.70;;
11197;SDS011;5655;48.744;9.162;2023-03-14T15:06:55;2.73;;;0.70;;
11197;SDS011;5655;48.744;9.162;2023-03-14T15:09:20;2.90;;;0.95;;
11197;SDS011;5655;48.744;9.162;2023-03-14T15:11:46;2.60;;;0.60;;
11197;SDS011;5655;48.744;9.162;2023-03-14T15:14:12;3.25;;;0.93;;
11197;SDS011;5655;48.744;9.162;2023-03-14T15:16:38;1.57;;;0.87;;
11197;SDS011;5655;48.744;9.162;2023-03-14T15:19:20;2.40;;;0.90;;
11197;SDS011;5655;48.744;9.162;2023-03-14T15:21:48;2.72;;;1.02;;
11197;SDS011;5655;48.744;9.162;2023-03-14T15:24:13;2.65;;;0.90;;
11197;SDS011;5655;48.744;9.162;2023-03-14T15:26:39;1.85;;;0.77;;
11197;SDS011;5655;48.744;9.162;2023-03-14T15:29:04;2.08;;;0.90;;
11197;SDS011;5655;48.744;9.162;2023-03-14T15:31:33;5.35;;;1.30;;
11197;SDS011;5655;48.744;9.162;2023-03-14T15:33:58;1.85;;;0.60;;
11197;SDS011;5655;48.744;9.162;2023-03-14T15:36:25;2.78;;;1.02;;
11197;SDS011;5655;48.744;9.162;2023-03-14T15:38:52;2.35;;;0.65;;
11197;SDS011;5655;48.744;9.162;2023-03-14T15:41:19;2.47;;;0.80;;
11197;SDS011;5655;48.744;9.162;2023-03-14T15:43:46;2.97;;;0.77;;
11197;SDS011;5655;48.744;9.162;2023-03-14T15:46:12;3.72;;;0.77;;
11197;SDS011;5655;48.744;9.162;2023-03-14T15:48:39;2.47;;;0.95;;
11197;SDS011;5655;48.744;9.162;2023-03-14T15:51:05;3.08;;;0.65;;
11197;SDS011;5655;48.744;9.162;2023-03-14T15:53:30;4.05;;;1.00;;
11197;SDS011;5655;48.744;9.162;2023-03-14T15:55:55;1.27;;;0.77;;
11197;SDS011;5655;48.744;9.162;2023-03-14T15:58:21;3.45;;;0.93;;
11197;SDS011;5655;48.744;9.162;2023-03-14T16:00:46;4.63;;;1.00;;
11197;SDS011;5655;48.744;9.162;2023-03-14T16:03:13;4.95;;;1.02;;
11197;SDS011;5655;48.744;9.162;2023-03-14T16:05:39;2.78;;;0.68;;
11197;SDS011;5655;48.744;9.162;2023-03-14T16:08:05;1.90;;;0.50;;
11197;SDS011;5655;48.744;9.162;2023-03-14T16:10:30;2.22;;;0.68;;
11197;SDS011;5655;48.744;9.162;2023-03-14T16:12:56;3.40;;;1.08;;
11197;SDS011;5655;48.744;9.162;2023-03-14T16:15:22;3.88;;;0.90;;
11197;SDS011;5655;48.744;9.162;2023-03-14T16:17:47;3.65;;;0.73;;
11197;SDS011;5655;48.744;9.162;2023-03-14T16:20:17;2.00;;;1.00;;